Time;durP1;ratioP1;P1;durP2;ratioP2;P2;SDS_P1;SDS_P2;PMS_P1;PMS_P2;Temp;Humidity;BMP_temperature;BMP_pressure;BME280_temperature;BME280_humidity;BME280_pressure;Samples;Min_cycle;Max_cycle;Signal;HPM_P1;HPM_P2
2023/01/21 00:00:09;;;;;;;10.53;7.30;;;;;;;-2.38;81.62;95729.00;4931500;29;20216;-80
2023/01/21 00:02:34;;;;;;;10.23;8.10;;;;;;;-2.49;80.39;95729.41;4922364;29;20200;-80
2023/01/21 00:05:00;;;;;;;11.87;8.07;;;;;;;-2.49;80.67;95731.97;4943307;29;20639;-80
2023/01/21 00:07:25;;;;;;;10.63;7.77;;;;;;;-2.53;80.05;95729.63;4932691;29;20191;-80
2023/01/21 00:09:51;;;;;;;11.10;7.93;;;;;;;-2.66;79.35;95732.66;4944121;29;20220;-80
2023/01/21 00:12:16;;;;;;;11.20;7.53;;;;;;;-2.64;79.25;95733.44;4922848;29;20563;-79
2023/01/21 00:14:42;;;;;;;8.67;6.73;;;;;;;-2.73;79.65;95735.53;4929476;29;20776;-78
2023/01/21 00:17:07;;;;;;;10.17;7.30;;;;;;;-2.74;79.78;95733.88;4916627;29;20194;-80
2023/01/21 00:19:32;;;;;;;13.03;8.07;;;;;;;-2.79;79.82;95728.97;4921883;29;20207;-78
2023/01/21 00:21:58;;;;;;;10.07;6.67;;;;;;;-2.86;79.82;95732.66;4932328;29;20189;-80
2023/01/21 00:24:23;;;;;;;12.20;6.93;;;;;;;-2.93;80.08;95723.63;4933178;29;20186;-80
2023/01/21 00:26:49;;;;;;;10.27;7.37;;;;;;;-2.93;81.10;95726.16;4943572;29;20555;-80
2023/01/21 00:29:14;;;;;;;8.83;6.97;;;;;;;-2.92;80.99;95730.34;4931166;29;21124;-77
2023/01/21 00:31:40;;;;;;;10.20;6.63;;;;;;;-2.91;80.59;95739.66;4918655;29;20222;-80
2023/01/21 00:34:05;;;;;;;8.83;6.67;;;;;;;-2.87;80.79;95736.09;4916080;29;20205;-79
2023/01/21 00:36:30;;;;;;;9.20;7.30;;;;;;;-2.86;79.70;95745.38;4936545;29;20194;-80
2023/01/21 00:38:56;;;;;;;8.97;6.43;;;;;;;-2.78;80.30;95740.81;4931864;29;20590;-79
2023/01/21 00:41:23;;;;;;;7.77;6.97;;;;;;;-2.80;79.80;95745.13;4947547;29;20670;-79
2023/01/21 00:43:48;;;;;;;6.80;6.00;;;;;;;-2.79;79.88;95751.84;4926465;29;20694;-78
2023/01/21 00:46:14;;;;;;;9.90;6.40;;;;;;;-2.74;79.61;95749.97;4921540;29;20186;-79
2023/01/21 00:48:39;;;;;;;8.70;6.27;;;;;;;-2.75;79.40;95753.38;4932015;29;20215;-81
2023/01/21 00:51:04;;;;;;;9.57;6.07;;;;;;;-2.81;78.61;95746.03;4928221;29;20535;-80
2023/01/21 00:53:32;;;;;;;10.33;6.77;;;;;;;-2.75;78.51;95755.09;4927160;29;20182;-81
2023/01/21 00:56:03;;;;;;;9.20;6.30;;;;;;;-2.71;79.18;95754.91;4924549;29;20199;-78
2023/01/21 00:58:29;;;;;;;8.60;6.43;;;;;;;-2.79;78.78;95753.56;4946154;28;20261;-80
2023/01/21 01:01:04;;;;;;;8.43;6.10;;;;;;;-2.79;79.10;95762.03;4936399;29;20270;-80
2023/01/21 01:03:30;;;;;;;9.03;7.07;;;;;;;-2.75;79.24;95758.47;4938393;29;20182;-80
2023/01/21 01:06:03;;;;;;;10.73;6.20;;;;;;;-2.71;79.12;95765.09;4929688;29;20201;-78
2023/01/21 01:08:29;;;;;;;9.33;6.20;;;;;;;-2.81;78.69;95765.53;4934152;29;20831;-80
2023/01/21 01:10:54;;;;;;;9.83;6.60;;;;;;;-2.76;79.13;95759.34;4930400;29;20309;-80
2023/01/21 01:13:19;;;;;;;9.20;6.03;;;;;;;-2.75;78.96;95762.72;4937304;29;20639;-78
2023/01/21 01:15:46;;;;;;;8.33;5.90;;;;;;;-2.75;79.16;95767.81;4932029;29;20202;-80
2023/01/21 01:18:11;;;;;;;7.23;5.60;;;;;;;-2.73;78.47;95776.22;4943456;29;20554;-78
2023/01/21 01:20:37;;;;;;;8.57;6.03;;;;;;;-2.73;78.98;95777.03;4937808;29;20214;-79
2023/01/21 01:23:03;;;;;;;8.07;6.53;;;;;;;-2.72;78.85;95780.41;4916569;29;20192;-78
2023/01/21 01:25:29;;;;;;;9.13;6.67;;;;;;;-2.79;79.15;95776.44;4931932;29;20326;-80
2023/01/21 01:27:54;;;;;;;10.30;7.33;;;;;;;-2.86;79.59;95784.31;4940784;29;20196;-80
2023/01/21 01:30:19;;;;;;;10.73;7.10;;;;;;;-3.00;79.53;95788.31;4935279;29;20267;-78
2023/01/21 01:32:45;;;;;;;10.00;6.73;;;;;;;-2.90;79.70;95789.59;4929673;29;20781;-78
2023/01/21 01:35:10;;;;;;;12.67;7.83;;;;;;;-2.99;79.70;95793.31;4933616;29;20557;-79
2023/01/21 01:37:35;;;;;;;10.40;7.23;;;;;;;-3.06;79.50;95799.53;4931137;29;20197;-78
2023/01/21 01:40:01;;;;;;;8.93;7.33;;;;;;;-3.05;80.43;95802.88;4932030;29;20207;-79
2023/01/21 01:42:26;;;;;;;10.27;7.83;;;;;;;-3.06;80.51;95793.63;4931526;29;20286;-78
2023/01/21 01:44:57;;;;;;;12.53;8.17;;;;;;;-3.11;80.44;95793.78;4921737;29;20195;-79
2023/01/21 01:47:35;;;;;;;11.50;7.57;;;;;;;-3.16;79.98;95799.06;4942828;29;20285;-80
2023/01/21 01:50:02;;;;;;;10.83;7.90;;;;;;;-3.22;80.60;95799.28;4945602;29;20261;-79
2023/01/21 01:52:28;;;;;;;13.13;8.37;;;;;;;-3.27;81.00;95793.56;4926823;29;20289;-79
2023/01/21 01:54:56;;;;;;;14.53;8.47;;;;;;;-3.23;79.77;95800.16;4923294;29;20202;-79
2023/01/21 01:57:22;;;;;;;10.73;8.07;;;;;;;-3.17;79.89;95807.56;4932548;29;20785;-79
2023/01/21 01:59:48;;;;;;;12.57;8.37;;;;;;;-3.20;79.79;95800.03;4934962;29;20211;-79
2023/01/21 02:02:16;;;;;;;10.60;7.67;;;;;;;-3.20;79.82;95802.56;4939981;29;20190;-80
2023/01/21 02:04:53;;;;;;;11.97;8.13;;;;;;;-3.26;80.09;95805.38;4937180;29;20199;-77
2023/01/21 02:07:20;;;;;;;11.77;7.60;;;;;;;-3.22;79.99;95806.91;4934991;29;20177;-78
2023/01/21 02:09:45;;;;;;;11.07;8.23;;;;;;;-3.19;79.96;95811.03;4929452;29;20214;-80
2023/01/21 02:12:10;;;;;;;11.10;8.47;;;;;;;-3.26;79.63;95813.00;4924388;29;20210;-78
2023/01/21 02:14:41;;;;;;;11.57;8.37;;;;;;;-3.29;79.81;95813.09;4931606;29;20195;-77
2023/01/21 02:17:23;;;;;;;12.87;9.10;;;;;;;-3.33;80.06;95808.19;4943958;29;20191;-78
2023/01/21 02:20:16;;;;;;;12.57;8.80;;;;;;;-3.43;80.29;95808.53;4925517;29;20222;-79
2023/01/21 02:22:55;;;;;;;14.40;9.60;;;;;;;-3.43;80.42;95812.78;4946328;29;20288;-80
2023/01/21 02:25:43;;;;;;;12.23;9.97;;;;;;;-3.25;79.71;95817.19;4947910;29;20245;-78
2023/01/21 02:28:48;;;;;;;16.73;9.60;;;;;;;-3.17;79.29;95824.53;4942070;29;20206;-78
2023/01/21 02:31:35;;;;;;;15.10;9.40;;;;;;;-3.17;78.92;95824.53;4920984;29;20353;-79
2023/01/21 02:34:40;;;;;;;12.57;9.37;;;;;;;-3.16;78.81;95836.34;4932561;29;20241;-79
2023/01/21 02:37:16;;;;;;;12.23;8.77;;;;;;;-3.19;78.54;95839.78;4941188;29;20570;-77
2023/01/21 02:39:47;;;;;;;12.97;9.03;;;;;;;-3.21;78.73;95836.50;4929112;29;20213;-80
2023/01/21 02:42:23;;;;;;;16.63;10.40;;;;;;;-3.25;78.34;95844.31;4933763;29;20198;-80
2023/01/21 02:45:08;;;;;;;14.33;9.63;;;;;;;-3.22;78.93;95837.38;4917062;29;20654;-80
2023/01/21 02:47:43;;;;;;;12.13;9.00;;;;;;;-3.33;79.26;95843.75;4946077;29;20654;-80
2023/01/21 02:50:14;;;;;;;16.07;8.77;;;;;;;-3.31;78.67;95841.97;4933585;29;20597;-80
2023/01/21 02:52:39;;;;;;;16.30;9.23;;;;;;;-3.30;78.59;95847.00;4928205;28;20245;-80
2023/01/21 02:55:08;;;;;;;10.50;8.37;;;;;;;-3.37;78.68;95853.19;4923669;29;20714;-80
2023/01/21 02:57:36;;;;;;;15.17;9.57;;;;;;;-3.38;78.17;95856.59;4901883;29;20243;-79
2023/01/21 03:00:06;;;;;;;14.80;9.20;;;;;;;-3.42;78.01;95862.69;4937749;28;20241;-78
2023/01/21 03:03:02;;;;;;;15.27;9.43;;;;;;;-3.53;78.92;95859.72;4964535;28;20173;-81
2023/01/21 03:05:43;;;;;;;12.63;9.37;;;;;;;-3.56;78.92;95857.28;4946527;29;20201;-81
2023/01/21 03:08:12;;;;;;;16.27;9.17;;;;;;;-3.62;78.01;95857.47;4932865;29;20245;-81
2023/01/21 03:10:47;;;;;;;13.57;10.00;;;;;;;-3.66;78.62;95861.03;4926667;29;20237;-79
2023/01/21 03:18:58;;;;;;;13.00;10.03;;;;;;;-3.84;79.20;95858.25;4931386;29;20189;-81
2023/01/21 03:21:26;;;;;;;15.67;9.77;;;;;;;-3.92;80.27;95861.94;4936596;29;20193;-81
2023/01/21 03:23:52;;;;;;;14.53;9.67;;;;;;;-3.82;79.65;95856.47;4931688;29;20190;-80
2023/01/21 03:26:21;;;;;;;13.97;8.97;;;;;;;-3.86;79.86;95854.13;4932158;29;20676;-80
2023/01/21 03:28:51;;;;;;;13.03;9.80;;;;;;;-3.79;79.17;95860.66;4914651;29;20775;-78
2023/01/21 03:31:18;;;;;;;13.27;9.50;;;;;;;-3.84;78.80;95855.72;4918145;29;20214;-80
2023/01/21 03:33:47;;;;;;;12.53;9.03;;;;;;;-3.78;78.92;95859.75;4917780;29;20241;-80
2023/01/21 03:36:38;;;;;;;12.07;8.77;;;;;;;-3.81;78.86;95862.38;4940667;29;20327;-80
2023/01/21 03:39:12;;;;;;;14.30;9.57;;;;;;;-3.96;78.18;95868.84;4929611;29;20197;-80
2023/01/21 03:41:38;;;;;;;15.10;9.30;;;;;;;-3.96;78.63;95866.31;4932673;29;20244;-79
2023/01/21 03:44:03;;;;;;;16.10;9.30;;;;;;;-4.03;78.98;95869.91;4926900;29;20193;-80
2023/01/21 03:46:43;;;;;;;12.43;9.03;;;;;;;-4.03;79.74;95880.06;4930746;29;20202;-80
2023/01/21 03:49:15;;;;;;;14.60;9.37;;;;;;;-4.11;79.29;95871.88;4911149;29;20300;-79
2023/01/21 03:51:47;;;;;;;12.87;9.13;;;;;;;-4.08;79.98;95869.22;4920761;29;20213;-79
2023/01/21 03:54:13;;;;;;;13.63;9.07;;;;;;;-4.16;80.00;95876.25;4932373;29;20218;-80
2023/01/21 03:56:38;;;;;;;13.70;9.13;;;;;;;-4.11;79.73;95874.41;4929923;28;20288;-80
2023/01/21 03:59:03;;;;;;;12.07;8.80;;;;;;;-4.06;79.60;95878.47;4932320;29;20730;-80
2023/01/21 04:01:28;;;;;;;13.43;8.80;;;;;;;-4.15;79.19;95871.16;4931733;29;20186;-79
2023/01/21 04:03:54;;;;;;;12.07;8.70;;;;;;;-4.16;79.32;95881.34;4904599;29;20230;-80
2023/01/21 04:06:21;;;;;;;12.83;9.37;;;;;;;-4.20;79.71;95879.78;4931201;29;20187;-79
2023/01/21 04:08:46;;;;;;;13.40;8.33;;;;;;;-4.18;79.45;95881.41;4931808;29;20265;-79
2023/01/21 04:11:12;;;;;;;12.10;8.00;;;;;;;-4.21;79.16;95883.22;4932536;29;20579;-77
2023/01/21 04:13:37;;;;;;;13.67;8.30;;;;;;;-4.20;78.73;95887.41;4931452;29;20183;-77
2023/01/21 04:16:03;;;;;;;11.20;7.53;;;;;;;-4.37;79.37;95893.84;4939631;29;20182;-77
2023/01/21 04:18:28;;;;;;;9.50;7.17;;;;;;;-4.25;79.14;95887.53;4937150;28;20182;-77
2023/01/21 04:20:53;;;;;;;11.50;7.93;;;;;;;-4.27;79.03;95895.22;4932850;29;20213;-77
2023/01/21 04:23:18;;;;;;;12.70;7.50;;;;;;;-4.31;79.00;95902.97;4947424;29;20283;-77
2023/01/21 04:25:47;;;;;;;12.10;7.40;;;;;;;-4.40;79.14;95901.56;4931505;29;20213;-81
2023/01/21 04:28:12;;;;;;;10.20;7.23;;;;;;;-4.35;78.78;95911.53;4940282;29;20277;-79
2023/01/21 04:30:37;;;;;;;10.00;6.93;;;;;;;-4.37;78.37;95910.78;4932854;29;20570;-77
2023/01/21 04:33:03;;;;;;;9.80;7.17;;;;;;;-4.45;79.72;95916.09;4932141;29;20202;-78
2023/01/21 04:35:28;;;;;;;9.13;6.73;;;;;;;-4.46;79.99;95913.59;4931106;29;20666;-79
2023/01/21 04:37:53;;;;;;;8.33;6.97;;;;;;;-4.52;80.42;95909.53;4937207;29;20229;-79
2023/01/21 04:40:18;;;;;;;12.03;7.57;;;;;;;-4.53;80.09;95912.13;4931479;29;20249;-79
2023/01/21 04:42:44;;;;;;;10.83;7.67;;;;;;;-4.47;79.64;95909.41;4930160;29;20205;-79
2023/01/21 04:45:09;;;;;;;11.90;7.57;;;;;;;-4.42;80.02;95915.16;4939570;29;20539;-79
2023/01/21 04:47:35;;;;;;;11.57;8.03;;;;;;;-4.39;79.35;95910.00;4929096;29;20194;-79
2023/01/21 04:50:01;;;;;;;14.17;9.17;;;;;;;-4.35;79.22;95917.44;4931888;29;20266;-78
2023/01/21 04:52:26;;;;;;;13.33;9.00;;;;;;;-4.35;78.85;95914.06;4924287;29;20818;-78
2023/01/21 04:54:51;;;;;;;12.50;9.33;;;;;;;-4.31;79.19;95915.66;4919729;29;20187;-78
2023/01/21 04:57:17;;;;;;;14.30;8.93;;;;;;;-4.37;78.87;95919.19;4931471;29;20201;-78
2023/01/21 04:59:42;;;;;;;13.57;9.03;;;;;;;-4.39;79.30;95915.91;4933673;29;20202;-78
2023/01/21 05:02:07;;;;;;;12.40;8.70;;;;;;;-4.39;79.32;95915.06;4931586;29;20685;-77
2023/01/21 05:04:32;;;;;;;12.97;8.73;;;;;;;-4.44;79.27;95919.44;4944513;29;20232;-78
2023/01/21 05:06:58;;;;;;;12.40;8.20;;;;;;;-4.40;79.79;95915.94;4931810;29;20248;-78
2023/01/21 05:09:23;;;;;;;11.90;7.63;;;;;;;-4.39;79.06;95920.97;4930335;29;20221;-79
2023/01/21 05:11:48;;;;;;;10.20;7.90;;;;;;;-4.37;79.24;95916.66;4920596;29;20230;-77
2023/01/21 05:14:14;;;;;;;10.67;7.77;;;;;;;-4.38;79.21;95922.63;4931484;29;20195;-79
2023/01/21 05:16:39;;;;;;;9.97;7.63;;;;;;;-4.44;79.29;95920.28;4951478;28;20245;-76
2023/01/21 05:19:04;;;;;;;11.20;8.00;;;;;;;-4.47;79.61;95912.78;4934060;28;20205;-79
2023/01/21 05:21:30;;;;;;;9.80;7.60;;;;;;;-4.47;79.16;95922.91;4935124;29;20194;-79
2023/01/21 05:23:56;;;;;;;11.00;7.60;;;;;;;-4.49;79.52;95921.31;4931722;29;20190;-79
2023/01/21 05:26:21;;;;;;;11.90;8.20;;;;;;;-4.49;79.81;95927.22;4930361;29;20225;-79
2023/01/21 05:28:47;;;;;;;12.23;8.40;;;;;;;-4.54;79.53;95934.13;4926218;29;20297;-79
2023/01/21 05:31:12;;;;;;;10.77;7.40;;;;;;;-4.58;80.05;95930.03;4934166;29;20342;-77
2023/01/21 05:33:38;;;;;;;11.17;7.57;;;;;;;-4.57;79.84;95931.69;4949037;29;20201;-77
2023/01/21 05:36:03;;;;;;;11.90;7.60;;;;;;;-4.58;80.22;95930.84;4943011;29;20187;-79
2023/01/21 05:38:29;;;;;;;9.17;6.90;;;;;;;-4.60;80.59;95932.59;4937106;29;20186;-77
2023/01/21 05:41:01;;;;;;;10.00;7.20;;;;;;;-4.59;80.00;95933.44;4934046;29;20217;-78
2023/01/21 05:43:27;;;;;;;12.17;7.67;;;;;;;-4.64;80.51;95935.28;4908325;29;20862;-79
2023/01/21 05:45:52;;;;;;;10.13;8.07;;;;;;;-4.66;80.80;95942.94;4943854;29;20225;-79
2023/01/21 05:48:17;;;;;;;13.93;8.13;;;;;;;-4.64;81.26;95937.81;4919820;29;20197;-78
2023/01/21 05:50:43;;;;;;;11.23;7.77;;;;;;;-4.64;82.09;95945.41;4934787;29;20254;-79
2023/01/21 05:53:08;;;;;;;14.40;8.37;;;;;;;-4.58;81.62;95945.22;4926749;29;20200;-78
2023/01/21 05:55:33;;;;;;;14.27;8.37;;;;;;;-4.62;82.72;95953.78;4936457;29;20191;-79
2023/01/21 05:57:58;;;;;;;12.40;8.93;;;;;;;-4.54;82.80;95961.16;4919364;29;20186;-79
2023/01/21 06:00:24;;;;;;;15.70;9.50;;;;;;;-4.54;82.15;95956.94;4932525;29;20221;-77
2023/01/21 06:02:49;;;;;;;14.70;9.53;;;;;;;-4.62;82.97;95953.78;4944132;29;20214;-77
2023/01/21 06:05:14;;;;;;;13.80;8.97;;;;;;;-4.63;83.00;95967.34;4934874;29;20189;-79
2023/01/21 06:07:40;;;;;;;13.03;9.77;;;;;;;-4.61;83.24;95968.13;4948024;29;20570;-79
2023/01/21 06:10:05;;;;;;;16.40;10.23;;;;;;;-4.70;83.31;95970.94;4942804;29;20682;-80
2023/01/21 06:12:31;;;;;;;19.67;13.17;;;;;;;-4.78;84.55;95975.38;4922693;29;20289;-79
2023/01/21 06:14:56;;;;;;;20.13;12.73;;;;;;;-4.72;83.67;95973.50;4932151;29;20206;-78
2023/01/21 06:17:21;;;;;;;26.40;16.03;;;;;;;-4.81;84.76;95980.56;4938647;29;20183;-78
2023/01/21 06:19:47;;;;;;;36.20;18.87;;;;;;;-4.78;84.57;95971.16;4911396;29;20205;-78
2023/01/21 06:22:14;;;;;;;19.77;12.50;;;;;;;-4.87;85.07;95974.78;4948386;29;20189;-79
2023/01/21 06:24:39;;;;;;;69.00;34.23;;;;;;;-4.87;85.29;95984.09;4947378;29;20694;-80
2023/01/21 06:27:05;;;;;;;50.77;26.43;;;;;;;-4.94;85.64;95982.63;4942467;29;20221;-79
2023/01/21 06:29:30;;;;;;;38.73;22.10;;;;;;;-5.21;85.77;95987.59;4932350;29;20265;-79
2023/01/21 06:31:55;;;;;;;24.83;16.40;;;;;;;-5.01;89.32;95987.03;4933345;29;20598;-79
2023/01/21 06:34:20;;;;;;;26.83;15.90;;;;;;;-4.91;88.41;95992.66;4937881;29;20187;-78
2023/01/21 06:36:46;;;;;;;30.30;17.93;;;;;;;-4.92;90.50;95991.84;4933464;29;20198;-77
2023/01/21 06:39:11;;;;;;;52.43;19.60;;;;;;;-4.94;90.75;95995.28;4932089;29;20189;-79
2023/01/21 06:41:36;;;;;;;34.93;19.73;;;;;;;-4.79;90.69;96006.66;4929388;29;20201;-78
2023/01/21 06:44:03;;;;;;;74.67;21.53;;;;;;;-4.93;91.73;96005.38;4940427;29;20677;-78
2023/01/21 06:46:28;;;;;;;96.17;32.10;;;;;;;-4.96;93.83;96010.50;4918162;29;20193;-78
2023/01/21 06:48:53;;;;;;;52.70;24.00;;;;;;;-4.82;93.01;96016.91;4933553;29;20236;-80
2023/01/21 06:51:18;;;;;;;39.47;23.20;;;;;;;-4.75;91.88;96018.41;4946413;29;20218;-79
2023/01/21 06:53:44;;;;;;;40.63;22.50;;;;;;;-4.65;91.19;96023.16;4924704;29;20195;-80
2023/01/21 06:56:09;;;;;;;48.07;21.23;;;;;;;-4.72;91.67;96020.84;4917816;29;20705;-78
2023/01/21 06:58:34;;;;;;;33.53;20.47;;;;;;;-4.53;91.31;96024.47;4934528;29;20651;-80
2023/01/21 07:01:00;;;;;;;40.80;20.47;;;;;;;-4.57;90.76;96028.00;4923343;29;20209;-79
2023/01/21 07:03:25;;;;;;;38.93;20.20;;;;;;;-4.49;91.25;96037.91;4928360;29;20200;-79
2023/01/21 07:05:50;;;;;;;86.17;23.10;;;;;;;-4.62;91.15;96034.91;4931488;29;20617;-78
2023/01/21 07:08:16;;;;;;;217.87;28.17;;;;;;;-4.85;92.98;96044.00;4927887;29;20610;-80
2023/01/21 07:10:41;;;;;;;53.77;22.53;;;;;;;-4.74;93.55;96036.09;4939683;29;20645;-80
2023/01/21 07:13:07;;;;;;;48.07;23.00;;;;;;;-4.69;93.40;96038.47;4931307;29;20197;-78
2023/01/21 07:15:32;;;;;;;42.67;21.33;;;;;;;-4.47;92.70;96044.59;4933383;29;20189;-78
2023/01/21 07:17:57;;;;;;;81.13;22.97;;;;;;;-4.61;92.70;96049.22;4932661;29;20193;-80
2023/01/21 07:20:23;;;;;;;67.33;22.07;;;;;;;-4.57;92.31;96051.63;4931604;29;20206;-79
2023/01/21 07:22:48;;;;;;;129.90;24.30;;;;;;;-4.65;93.59;96047.66;4933018;29;20281;-81
2023/01/21 07:25:13;;;;;;;50.00;22.03;;;;;;;-4.51;92.77;96062.44;4933790;29;20193;-80
2023/01/21 07:27:42;;;;;;;100.67;22.57;;;;;;;-4.51;92.54;96059.91;4931681;29;20217;-80
2023/01/21 07:30:09;;;;;;;95.03;24.00;;;;;;;-4.46;91.76;96063.16;4930766;29;20217;-80
2023/01/21 07:32:35;;;;;;;61.67;23.37;;;;;;;-4.49;92.63;96060.72;4932813;29;20218;-79
2023/01/21 07:35:00;;;;;;;48.37;21.33;;;;;;;-4.44;92.63;96058.88;4938057;29;20205;-81
2023/01/21 07:37:25;;;;;;;48.10;22.37;;;;;;;-4.24;92.51;96068.41;4909386;29;20186;-81
2023/01/21 07:39:51;;;;;;;81.27;22.43;;;;;;;-4.35;92.14;96069.56;4914774;29;20632;-80
2023/01/21 07:42:16;;;;;;;96.13;25.13;;;;;;;-4.37;91.90;96075.56;4929812;29;20198;-81
2023/01/21 07:44:41;;;;;;;63.07;21.83;;;;;;;-4.18;91.95;96075.84;4939693;29;20669;-78
2023/01/21 07:47:06;;;;;;;141.30;30.70;;;;;;;-4.39;92.43;96077.31;4917360;29;20190;-81
2023/01/21 07:49:32;;;;;;;77.17;25.57;;;;;;;-4.33;92.59;96078.00;4947091;29;20214;-80
2023/01/21 07:51:57;;;;;;;43.80;23.93;;;;;;;-4.07;91.49;96089.03;4940148;29;20187;-79
2023/01/21 07:54:23;;;;;;;58.00;22.70;;;;;;;-4.10;91.74;96084.06;4923538;29;20225;-80
2023/01/21 07:56:48;;;;;;;44.73;22.83;;;;;;;-4.04;91.13;96088.97;4932173;29;20198;-80
2023/01/21 07:59:13;;;;;;;54.03;22.30;;;;;;;-4.02;90.49;96087.19;4915693;29;20178;-79
2023/01/21 08:01:39;;;;;;;74.13;23.17;;;;;;;-4.06;90.27;96091.56;4932455;29;20681;-79
2023/01/21 08:04:06;;;;;;;50.37;22.30;;;;;;;-3.92;89.96;96098.72;4945298;29;20288;-80
2023/01/21 08:06:31;;;;;;;50.43;21.47;;;;;;;-3.96;90.23;96101.41;4918778;29;20210;-81
2023/01/21 08:08:56;;;;;;;79.73;21.50;;;;;;;-3.92;90.83;96103.78;4931032;29;20266;-81
2023/01/21 08:11:22;;;;;;;170.87;27.47;;;;;;;-4.30;91.32;96098.16;4932883;29;20675;-79
2023/01/21 08:13:48;;;;;;;44.43;20.27;;;;;;;-4.06;90.76;96100.88;4948142;29;20186;-81
2023/01/21 08:16:14;;;;;;;51.60;24.43;;;;;;;-3.82;90.11;96111.94;4944088;29;20708;-79
2023/01/21 08:18:39;;;;;;;37.37;20.17;;;;;;;-3.84;89.75;96101.84;4931132;29;20190;-78
2023/01/21 08:21:04;;;;;;;44.50;20.67;;;;;;;-3.90;89.89;96108.81;4933964;29;20583;-81
2023/01/21 08:23:30;;;;;;;34.93;17.77;;;;;;;-3.99;90.60;96115.00;4931989;29;20563;-81
2023/01/21 08:25:56;;;;;;;39.87;18.93;;;;;;;-4.07;90.23;96117.75;4941173;29;20558;-81
2023/01/21 08:28:21;;;;;;;63.43;18.67;;;;;;;-4.08;90.42;96115.28;4931040;29;20200;-80
2023/01/21 08:30:47;;;;;;;74.57;19.53;;;;;;;-4.13;91.13;96115.44;4930000;29;20221;-80
2023/01/21 08:33:13;;;;;;;36.20;18.67;;;;;;;-4.10;91.71;96114.50;4931419;29;20213;-80
2023/01/21 08:35:38;;;;;;;36.13;17.40;;;;;;;-4.09;90.97;96114.44;4939183;29;20554;-81
2023/01/21 08:38:03;;;;;;;36.17;18.70;;;;;;;-3.95;91.28;96116.59;4917058;29;20770;-81
2023/01/21 08:40:29;;;;;;;35.33;17.60;;;;;;;-3.83;90.75;96126.34;4932217;29;20261;-81
2023/01/21 08:42:58;;;;;;;33.63;17.60;;;;;;;-3.82;90.27;96120.41;4931758;29;20659;-81
2023/01/21 08:45:24;;;;;;;41.67;19.03;;;;;;;-3.66;89.44;96130.09;4921437;29;20659;-82
2023/01/21 08:47:49;;;;;;;42.20;18.70;;;;;;;-3.72;88.56;96131.91;4931251;29;20190;-79
2023/01/21 08:50:14;;;;;;;32.37;17.70;;;;;;;-3.54;89.78;96134.75;4928936;29;20220;-81
2023/01/21 08:52:40;;;;;;;34.47;19.13;;;;;;;-3.48;88.69;96126.97;4924117;29;20193;-78
2023/01/21 08:55:05;;;;;;;28.13;16.53;;;;;;;-3.47;88.27;96132.00;4929858;28;20197;-81
2023/01/21 08:57:31;;;;;;;30.17;16.87;;;;;;;-3.54;87.99;96125.44;4930909;29;20186;-81
2023/01/21 08:59:56;;;;;;;35.17;16.73;;;;;;;-3.52;88.55;96123.72;4919169;29;20214;-81
2023/01/21 09:02:21;;;;;;;34.30;18.10;;;;;;;-3.49;89.10;96130.38;4941686;29;20216;-81
2023/01/21 09:04:49;;;;;;;38.10;18.13;;;;;;;-3.26;88.04;96134.75;4932943;29;20193;-79
2023/01/21 09:07:14;;;;;;;38.03;19.43;;;;;;;-3.25;87.11;96136.41;4919974;29;20212;-81
2023/01/21 09:09:39;;;;;;;36.17;17.70;;;;;;;-3.09;87.91;96137.56;4934026;29;20679;-78
2023/01/21 09:12:06;;;;;;;33.73;18.07;;;;;;;-2.94;87.39;96144.66;4933646;29;20702;-78
2023/01/21 09:14:31;;;;;;;31.57;18.27;;;;;;;-3.13;86.22;96136.81;4903662;29;20194;-78
2023/01/21 09:16:56;;;;;;;30.67;17.97;;;;;;;-3.06;87.29;96137.44;4934406;29;20245;-80
2023/01/21 09:19:22;;;;;;;34.77;17.90;;;;;;;-3.09;87.68;96142.63;4945018;29;20312;-79
2023/01/21 09:21:48;;;;;;;23.77;15.13;;;;;;;-3.13;87.74;96144.44;4934620;29;20190;-81
2023/01/21 09:24:13;;;;;;;35.13;16.73;;;;;;;-2.72;85.96;96126.97;4948572;29;20221;-80
2023/01/21 09:26:42;;;;;;;24.57;14.20;;;;;;;-2.61;85.88;96144.38;4942642;29;20261;-81
2023/01/21 09:29:08;;;;;;;29.23;16.57;;;;;;;-2.48;85.47;96140.50;4937404;29;20194;-81
2023/01/21 09:31:33;;;;;;;30.90;16.13;;;;;;;-2.63;85.12;96139.34;4933163;29;20685;-80
2023/01/21 09:34:01;;;;;;;29.50;16.33;;;;;;;-2.68;85.57;96143.75;4940068;29;21013;-79
2023/01/21 09:36:28;;;;;;;28.77;15.83;;;;;;;-2.67;86.19;96140.31;4928852;29;20625;-80
2023/01/21 09:38:54;;;;;;;28.47;16.47;;;;;;;-2.48;85.41;96140.50;4934391;29;20213;-80
2023/01/21 09:41:43;;;;;;;30.63;16.70;;;;;;;-2.39;85.64;96142.72;4916340;29;20308;-80
2023/01/21 09:44:28;;;;;;;27.13;14.37;;;;;;;-2.50;84.72;96146.53;4927633;29;20198;-78
2023/01/21 09:47:02;;;;;;;28.40;16.70;;;;;;;-2.19;84.48;96146.28;4934257;29;20182;-80
2023/01/21 09:49:32;;;;;;;31.73;15.93;;;;;;;-2.63;85.27;96152.06;4918004;29;20332;-82
2023/01/21 09:52:02;;;;;;;28.90;15.23;;;;;;;-2.49;84.25;96149.03;4925723;29;20556;-81
2023/01/21 09:54:30;;;;;;;28.90;16.57;;;;;;;-2.40;85.28;96156.31;4947426;29;20209;-82
2023/01/21 09:57:03;;;;;;;30.80;15.97;;;;;;;-2.01;84.48;96158.34;4935078;29;20684;-80
2023/01/21 09:59:36;;;;;;;30.30;15.67;;;;;;;-2.08;83.08;96154.34;4941515;29;20246;-82
2023/01/21 10:02:06;;;;;;;26.93;14.87;;;;;;;-2.05;83.30;96159.31;4926096;29;20702;-81
2023/01/21 10:04:39;;;;;;;28.27;16.20;;;;;;;-2.26;83.81;96158.38;4918864;29;20279;-82
2023/01/21 10:07:16;;;;;;;28.47;16.87;;;;;;;-2.00;83.01;96155.72;4918507;29;20182;-82
2023/01/21 10:09:56;;;;;;;22.40;13.60;;;;;;;-2.83;86.12;96169.69;4925811;29;20301;-81
2023/01/21 10:12:34;;;;;;;25.13;13.57;;;;;;;-2.45;85.54;96165.84;4950122;29;20241;-81
2023/01/21 10:15:25;;;;;;;29.90;14.07;;;;;;;-2.93;86.95;96165.81;4932331;29;20198;-80
2023/01/21 10:18:01;;;;;;;27.73;14.50;;;;;;;-2.63;86.88;96164.78;4917888;29;20194;-79
2023/01/21 10:20:34;;;;;;;23.60;13.80;;;;;;;-2.65;87.65;96158.91;4933055;29;20206;-81
2023/01/21 10:23:04;;;;;;;27.17;14.77;;;;;;;-2.55;86.13;96153.50;4934778;29;20197;-81
2023/01/21 10:25:31;;;;;;;27.40;14.80;;;;;;;-2.59;86.27;96163.78;4923199;29;20254;-81
2023/01/21 10:28:11;;;;;;;27.30;13.80;;;;;;;-2.76;86.61;96163.53;4912954;29;20190;-80
2023/01/21 10:30:42;;;;;;;24.10;14.27;;;;;;;-2.60;86.94;96157.03;4918303;29;20605;-81
2023/01/21 10:33:21;;;;;;;24.40;15.13;;;;;;;-2.59;87.39;96156.16;4935178;29;20230;-81
2023/01/21 10:36:05;;;;;;;28.63;14.37;;;;;;;-2.75;88.12;96164.34;4943342;29;20189;-80
2023/01/21 10:38:42;;;;;;;32.70;16.97;;;;;;;-2.91;89.14;96154.72;4921913;29;20182;-79
2023/01/21 10:41:17;;;;;;;34.07;17.47;;;;;;;-2.93;89.88;96153.94;4947068;29;20300;-80
2023/01/21 10:43:44;;;;;;;28.23;16.27;;;;;;;-2.41;88.39;96143.66;4927498;29;20188;-79
2023/01/21 10:46:25;;;;;;;30.00;17.83;;;;;;;-2.50;88.27;96151.63;4935054;29;20209;-80
2023/01/21 10:49:24;;;;;;;35.07;17.97;;;;;;;-2.25;87.33;96154.13;4932314;29;20205;-78
2023/01/21 10:51:57;;;;;;;30.50;16.40;;;;;;;-2.28;86.42;96157.63;4940862;29;20616;-80
2023/01/21 10:54:43;;;;;;;27.13;15.43;;;;;;;-2.23;85.52;96152.34;4924348;29;20241;-80
2023/01/21 10:57:35;;;;;;;35.53;15.80;;;;;;;-2.03;85.85;96149.94;4919572;29;20568;-81
2023/01/21 11:00:03;;;;;;;31.57;15.57;;;;;;;-2.22;86.52;96157.38;4923655;29;20214;-81
2023/01/21 11:02:31;;;;;;;27.73;16.57;;;;;;;-2.43;87.20;96151.34;4933091;29;20198;-81
2023/01/21 11:05:02;;;;;;;27.43;16.67;;;;;;;-2.76;88.48;96155.91;4917454;29;20182;-81
2023/01/21 11:07:32;;;;;;;29.37;17.07;;;;;;;-2.60;89.41;96149.41;4933761;29;20221;-80
2023/01/21 11:09:57;;;;;;;29.03;16.77;;;;;;;-2.87;89.46;96157.97;4924453;29;20258;-81
2023/01/21 11:12:23;;;;;;;35.27;17.97;;;;;;;-2.41;88.39;96146.22;4932644;29;20198;-80
2023/01/21 11:15:04;;;;;;;28.93;16.70;;;;;;;-2.34;88.66;96147.66;4932048;29;20194;-80
2023/01/21 11:17:32;;;;;;;30.33;16.50;;;;;;;-2.44;88.17;96148.88;4941614;29;20216;-81
2023/01/21 11:19:59;;;;;;;27.53;16.73;;;;;;;-2.89;90.32;96152.97;4929838;29;20619;-80
2023/01/21 11:22:28;;;;;;;26.60;15.80;;;;;;;-3.03;91.60;96156.81;4902004;29;20187;-80
2023/01/21 11:24:54;;;;;;;29.83;16.87;;;;;;;-2.82;90.44;96156.13;4921933;29;20225;-80
2023/01/21 11:27:33;;;;;;;28.17;16.93;;;;;;;-2.75;90.47;96157.56;4915611;29;20554;-81
2023/01/21 11:29:59;;;;;;;29.27;16.70;;;;;;;-2.59;90.00;96148.50;4933665;29;20206;-79
2023/01/21 11:32:26;;;;;;;25.33;15.07;;;;;;;-2.59;89.64;96143.44;4935373;29;20210;-81